Aérodrome :
LOGIN :

S'inscrire | Disclaimer

   EN    FR    IT 

 










Légende :    VFR   VFR Marginal   IFR   IFR Intensif   IFR Très Intensif
Visi : 
Plafond : 
>= 8 km
>= 3000ft
5 à 8 km
1000 à 3000 ft
1500m à 5 km
500 à 1000 ft
800 à 1500m
200 à 500 ft
< 800m
< 200 ft
Symboles :   Orages  Brouillard  Fortes neiges  Fortes précipitations  Vent > 20 kt
SIGMETs :   Divers  Orages  Givrage  Turbulence  Onde Orograph.  Cendres Volcan.






- Altitude de l'aérodrome : 425 ft
- Code IATA : DTM


EDLW - Dortmund

DERNIER METAR :
  • 032350Z AUTO 24005KT 9999 // NCD 13/09 Q1020

METARs EXPIRÉS :
  • 031520Z 27007KT 230V360 CAVOK 24/11 Q1017
  • 032320Z AUTO 24005KT 9999 // NCD 13/09 Q1019
  • 032220Z AUTO 26004KT 220V320 9999 // SCT068/// 15/09 Q1019
  • 032150Z AUTO VRB02KT 9999 // BKN070/// 17/10 Q1020
  • 032120Z AUTO VRB03KT 9999 // BKN072/// 17/10 Q1019

TAF TAF EDLW
Valide du 03 à 18h jusqu'au 04 à 18h UTC


031700Z 0318/0418 29008KT CAVOK
BECMG 0320/0324 21005KT
BECMG 0408/0412 27007KT



MET'MAP, la Météo Aéronautique d'un coup d'oeil ! - Copyright ORBIFLY Décembre 2007 - Disclaimer

ORBIFLY MET'MAP TEAM :

Programmation & Développement : Alexandra Zaïnal
Sur une idée originale de : Baudouin d'Aumeries
Soutien technique & logistique : Manuel Goepfert
Assistance : Marc-Olivier Méhu




SOURCES & CREDITS :

   NOAA